| time (UTC) | temp C | wind direction | speed KPH | gust KPH | rain 1hr cm | rain 24hr cm | rain mn cm | humidity % | barometer mb |
| 20260506013045 | 9 | 0 | 1.6 | 8.0 | 0.00 | 0.00 | 0.00 | 83 | 1011.3 |
| 20260506011550 | 9 | 77 | 1.6 | 8.0 | 0.00 | 0.00 | 0.00 | 83 | 1011.2 |
| 20260506010053 | 10 | 72 | 1.6 | 6.4 | 0.00 | 0.00 | 0.00 | 82 | 1011.2 |
| 20260506004553 | 10 | 0 | 3.2 | 8.0 | 0.00 | 0.00 | 0.00 | 82 | 1011.4 |
| 20260506003054 | 10 | 98 | 4.8 | 12.9 | 0.00 | 0.00 | 0.00 | 82 | 1011.5 |
| 20260506001558 | 10 | 56 | 4.8 | 12.9 | 0.00 | 0.00 | 0.00 | 81 | 1011.5 |
| 20260506000058 | 10 | 82 | 0.0 | 9.7 | 0.00 | 0.00 | 0.00 | 80 | 1011.6 |
| 20260505234551 | 10 | 84 | 4.8 | 9.7 | 0.00 | 0.00 | 0.00 | 79 | 1011.4 |
| 20260505233101 | 10 | 70 | 3.2 | 12.9 | 0.00 | 0.00 | 0.00 | 79 | 1011.4 |
| 20260505231553 | 10 | 68 | 1.6 | 12.9 | 0.00 | 0.00 | 0.00 | 79 | 1011.6 |
| 20260505230054 | 10 | 61 | 4.8 | 11.3 | 0.00 | 0.00 | 0.00 | 79 | 1011.6 |
| 20260505224551 | 11 | 75 | 3.2 | 12.9 | 0.00 | 0.00 | 0.00 | 79 | 1011.6 |
| 20260505223050 | 11 | 68 | 3.2 | 11.3 | 0.00 | 0.00 | 0.00 | 80 | 1011.5 |
| 20260505221558 | 11 | 303 | 4.8 | 14.5 | 0.00 | 0.00 | 0.00 | 79 | 1011.4 |
| 20260505220054 | 11 | 86 | 3.2 | 9.7 | 0.00 | 0.00 | 0.00 | 82 | 1011.4 |
| 20260505214549 | 11 | 0 | 0.0 | 3.2 | 0.00 | 0.00 | 0.00 | 82 | 1011.4 |
| 20260505213049 | 11 | 80 | 0.0 | 3.2 | 0.00 | 0.00 | 0.00 | 80 | 1011.5 |
| 20260505211547 | 11 | 0 | 0.0 | 6.4 | 0.00 | 0.00 | 0.00 | 78 | 1011.4 |
| 20260505210051 | 11 | 83 | 1.6 | 6.4 | 0.00 | 0.00 | 0.00 | 77 | 1011.4 |
| 20260505204551 | 11 | 59 | 1.6 | 6.4 | 0.00 | 0.00 | 0.00 | 77 | 1011.6 |
| 20260505203052 | 11 | 67 | 3.2 | 8.0 | 0.00 | 0.00 | 0.00 | 77 | 1011.4 |
| 20260505201551 | 11 | 55 | 3.2 | 8.0 | 0.00 | 0.00 | 0.00 | 76 | 1011.3 |
| 20260505200048 | 11 | 41 | 3.2 | 9.7 | 0.00 | 0.00 | 0.00 | 75 | 1011.1 |
| 20260505194558 | 11 | 84 | 3.2 | 12.9 | 0.00 | 0.00 | 0.00 | 75 | 1010.8 |
| 20260505193105 | 12 | 41 | 6.4 | 12.9 | 0.00 | 0.00 | 0.00 | 73 | 1010.8 |
| 20260505191547 | 12 | 75 | 6.4 | 11.3 | 0.00 | 0.00 | 0.00 | 69 | 1010.6 |
| 20260505190053 | 12 | 60 | 3.2 | 11.3 | 0.00 | 0.00 | 0.00 | 67 | 1010.4 |
| 20260505184553 | 12 | 79 | 3.2 | 9.7 | 0.00 | 0.00 | 0.00 | 67 | 1010.3 |
| 20260505183052 | 12 | 87 | 6.4 | 17.7 | 0.00 | 0.00 | 0.00 | 64 | 1010.2 |
| 20260505181545 | 13 | 62 | 8.0 | 14.5 | 0.00 | 0.00 | 0.00 | 61 | 1010.3 |
| 20260505180052 | 13 | 51 | 3.2 | 8.0 | 0.00 | 0.00 | 0.00 | 70 | 1010.3 |
| 20260505174552 | 13 | 88 | 3.2 | 9.7 | 0.00 | 0.00 | 0.00 | 73 | 1010.2 |
| 20260505173047 | 13 | 26 | 1.6 | 8.0 | 0.00 | 0.00 | 0.00 | 73 | 1010.1 |
| 20260505171551 | 13 | 71 | 3.2 | 9.7 | 0.00 | 0.00 | 0.00 | 72 | 1010.2 |
| 20260505170046 | 13 | 127 | 6.4 | 16.1 | 0.00 | 0.00 | 0.00 | 70 | 1010.4 |
| 20260505164553 | 15 | 108 | 3.2 | 14.5 | 0.00 | 0.00 | 0.00 | 68 | 1010.4 |
| 20260505163052 | 15 | 67 | 3.2 | 12.9 | 0.00 | 0.00 | 0.00 | 65 | 1010.3 |
| 20260505161551 | 15 | 108 | 8.0 | 17.7 | 0.00 | 0.00 | 0.00 | 63 | 1010.3 |
| 20260505153102 | 13 | 110 | 4.8 | 12.9 | 0.00 | 0.00 | 0.00 | 74 | 1010.6 |
| 20260505151549 | 13 | 84 | 3.2 | 16.1 | 0.00 | 0.00 | 0.00 | 74 | 1010.5 |
| 20260505124559 | 15 | 190 | 6.4 | 14.5 | 0.00 | 0.00 | 0.00 | 63 | 1011.0 |
| 20260505123107 | 15 | 131 | 6.4 | 16.1 | 0.00 | 0.00 | 0.00 | 64 | 1010.9 |
| 20260505121551 | 15 | 163 | 6.4 | 14.5 | 0.00 | 0.00 | 0.00 | 62 | 1010.9 |
| 20260505120056 | 15 | 72 | 8.0 | 16.1 | 0.00 | 0.00 | 0.00 | 63 | 1010.8 |
| 20260505114550 | 15 | 161 | 3.2 | 9.7 | 0.00 | 0.00 | 0.00 | 63 | 1010.9 |
| 20260505113054 | 15 | 156 | 4.8 | 12.9 | 0.00 | 0.00 | 0.00 | 62 | 1011.0 |
| 20260505111552 | 15 | 103 | 3.2 | 12.9 | 0.00 | 0.00 | 0.00 | 58 | 1011.1 |
| 20260505101553 | 15 | 66 | 6.4 | 14.5 | 0.00 | 0.00 | 0.00 | 60 | 1011.5 |
| 20260505100053 | 15 | 169 | 1.6 | 12.9 | 0.00 | 0.00 | 0.00 | 64 | 1011.4 |
| 20260505094555 | 14 | 58 | 4.8 | 12.9 | 0.00 | 0.00 | 0.00 | 65 | 1011.4 |
| 20260505093052 | 13 | 87 | 3.2 | 9.7 | 0.00 | 0.00 | 0.00 | 68 | 1011.4 |
| 20260505091613 | 13 | 62 | 3.2 | 9.7 | 0.00 | 0.00 | 0.00 | 73 | 1011.5 |
| 20260505090119 | 12 | 79 | 1.6 | 6.4 | 0.00 | 0.00 | 0.00 | 76 | 1011.6 |
| 20260505084611 | 12 | 110 | 1.6 | 8.0 | 0.00 | 0.00 | 0.00 | 78 | 1011.8 |
| 20260505083104 | 11 | 79 | 1.6 | 11.3 | 0.00 | 0.00 | 0.00 | 79 | 1011.8 |
| 20260505081557 | 11 | 72 | 3.2 | 12.9 | 0.00 | 0.00 | 0.00 | 79 | 1011.9 |
| 20260505080059 | 11 | 89 | 4.8 | 11.3 | 0.00 | 0.00 | 0.00 | 79 | 1011.8 |
| 20260505074549 | 11 | 79 | 6.4 | 11.3 | 0.00 | 0.00 | 0.00 | 80 | 1011.8 |
| 20260505073054 | 11 | 59 | 6.4 | 14.5 | 0.00 | 0.00 | 0.00 | 82 | 1011.8 |
| 20260505071610 | 11 | 58 | 4.8 | 9.7 | 0.00 | 0.00 | 0.00 | 83 | 1011.9 |
| 20260505070052 | 10 | 29 | 3.2 | 9.7 | 0.00 | 0.00 | 0.00 | 88 | 1012.1 |
| 20260505064551 | 10 | 67 | 4.8 | 9.7 | 0.00 | 0.00 | 0.00 | 88 | 1012.0 |
| 20260505063053 | 10 | 76 | 1.6 | 8.0 | 0.00 | 0.00 | 0.00 | 89 | 1012.0 |
| 20260505061547 | 10 | 84 | 3.2 | 8.0 | 0.00 | 0.00 | 0.00 | 89 | 1012.0 |
| 20260505060100 | 10 | 53 | 0.0 | 4.8 | 0.00 | 0.00 | 0.00 | 88 | 1012.0 |
| 20260505054553 | 10 | 60 | 0.0 | 4.8 | 0.00 | 0.00 | 0.00 | 88 | 1012.2 |
| 20260505053051 | 10 | 0 | 0.0 | 0.0 | 0.00 | 0.00 | 0.00 | 90 | 1012.1 |
| 20260505051550 | 9 | 0 | 0.0 | 0.0 | 0.00 | 0.00 | 0.00 | 91 | 1012.1 |
| 20260505041554 | 9 | 0 | 0.0 | 0.0 | 0.00 | 0.00 | 0.00 | 91 | 1012.2 |
| 20260505040049 | 9 | 0 | 0.0 | 1.6 | 0.00 | 0.00 | 0.00 | 90 | 1012.2 |
| 20260505034548 | 10 | 84 | 0.0 | 3.2 | 0.00 | 0.00 | 0.00 | 90 | 1012.1 |
| 20260505033049 | 10 | 0 | 0.0 | 3.2 | 0.00 | 0.00 | 0.00 | 89 | 1012.3 |
| 20260505031551 | 10 | 51 | 0.0 | 4.8 | 0.00 | 0.00 | 0.00 | 89 | 1012.4 |
| 20260505030119 | 10 | 57 | 1.6 | 8.0 | 0.00 | 0.00 | 0.00 | 89 | 1012.5 |
| 20260505024559 | 10 | 63 | 1.6 | 9.7 | 0.00 | 0.00 | 0.00 | 89 | 1012.6 |
| 20260505023052 | 10 | 72 | 0.0 | 6.4 | 0.00 | 0.00 | 0.00 | 89 | 1012.5 |
| 20260505021552 | 10 | 68 | 1.6 | 8.0 | 0.00 | 0.00 | 0.00 | 89 | 1012.4 |
| 20260505020100 | 10 | 87 | 1.6 | 6.4 | 0.00 | 0.00 | 0.00 | 89 | 1012.4 |
| 20260505014603 | 10 | 64 | 1.6 | 3.2 | 0.00 | 0.00 | 0.00 | 89 | 1012.7 |